Time,TemperatureF,DewpointF,PressureIn,WindDirection,WindDirectionDegrees,WindSpeedMPH,WindSpeedGustMPH,Humidity,HourlyPrecipIn,Conditions,Clouds,dailyrainin,SoftwareType,DateUTC
2013-07-14 00:01:00,54.0,31.0,-100.00,NNW,343,5.0,7.0,41,0.00,,,-99.99,,2013-07-14 06:01:00,
2013-07-14 00:11:00,54.0,31.0,-100.00,NNW,342,5.0,8.0,41,0.00,,,-99.99,,2013-07-14 06:11:00,
2013-07-14 00:22:00,54.0,31.0,-100.00,NNW,342,5.0,8.0,41,0.00,,,-99.99,,2013-07-14 06:22:00,
2013-07-14 00:32:00,53.0,32.0,-100.00,NW,318,4.0,6.0,45,0.00,,,-99.99,,2013-07-14 06:32:00,
2013-07-14 00:42:00,51.0,32.0,-100.00,NW,319,4.0,5.0,48,0.00,,,-99.99,,2013-07-14 06:42:00,
2013-07-14 00:53:00,51.0,32.0,-100.00,NW,319,4.0,5.0,48,0.00,,,-99.99,,2013-07-14 06:53:00,
2013-07-14 01:02:00,52.0,32.0,-100.00,NW,319,5.0,7.0,46,0.00,,,-99.99,,2013-07-14 07:02:00,
2013-07-14 01:11:00,52.0,32.0,-100.00,NW,319,5.0,7.0,46,0.00,,,-99.99,,2013-07-14 07:11:00,
2013-07-14 01:22:00,52.0,32.0,-100.00,NW,319,5.0,7.0,46,0.00,,,-99.99,,2013-07-14 07:22:00,
2013-07-14 01:32:00,51.0,32.0,-100.00,NW,319,4.0,5.0,49,0.00,,,-99.99,,2013-07-14 07:32:00,
2013-07-14 01:43:00,50.0,32.0,-100.00,NW,304,4.0,6.0,50,0.00,,,-99.99,,2013-07-14 07:43:00,
2013-07-14 01:53:00,50.0,32.0,-100.00,NW,304,4.0,6.0,50,0.00,,,-99.99,,2013-07-14 07:53:00,
2013-07-14 02:01:00,50.0,32.0,-100.00,NW,306,4.0,5.0,51,0.00,,,-99.99,,2013-07-14 08:01:00,
2013-07-14 02:11:00,49.0,33.0,-100.00,WNW,301,4.0,5.0,53,0.00,,,-99.99,,2013-07-14 08:11:00,
2013-07-14 02:22:00,49.0,33.0,-100.00,WNW,301,4.0,5.0,53,0.00,,,-99.99,,2013-07-14 08:22:00,
2013-07-14 02:32:00,49.0,33.0,-100.00,WNW,301,4.0,5.0,53,0.00,,,-99.99,,2013-07-14 08:32:00,
2013-07-14 02:42:00,49.0,32.0,-100.00,NW,319,4.0,5.0,51,0.00,,,-99.99,,2013-07-14 08:42:00,
2013-07-14 02:53:00,49.0,32.0,-100.00,NW,319,4.0,5.0,51,0.00,,,-99.99,,2013-07-14 08:53:00,
2013-07-14 03:01:00,49.0,31.0,-100.00,WNW,296,4.0,4.0,49,0.00,,,-99.99,,2013-07-14 09:01:00,
2013-07-14 03:11:00,49.0,31.0,-100.00,WNW,302,4.0,5.0,49,0.00,,,-99.99,,2013-07-14 09:11:00,
2013-07-14 03:22:00,49.0,31.0,-100.00,WNW,302,4.0,5.0,49,0.00,,,-99.99,,2013-07-14 09:22:00,
2013-07-14 03:32:00,49.0,31.0,-100.00,WNW,302,4.0,5.0,49,0.00,,,-99.99,,2013-07-14 09:32:00,
2013-07-14 03:42:00,48.0,31.0,-100.00,WNW,288,3.0,4.0,51,0.00,,,-99.99,,2013-07-14 09:42:00,
2013-07-14 03:53:00,48.0,31.0,-100.00,WNW,288,3.0,4.0,51,0.00,,,-99.99,,2013-07-14 09:53:00,
2013-07-14 04:01:00,48.0,31.0,-100.00,WNW,292,4.0,4.0,51,0.00,,,-99.99,,2013-07-14 10:01:00,
2013-07-14 04:11:00,48.0,31.0,-100.00,WNW,292,4.0,6.0,51,0.00,,,-99.99,,2013-07-14 10:11:00,
2013-07-14 04:21:00,48.0,31.0,-100.00,WNW,292,4.0,6.0,51,0.00,,,-99.99,,2013-07-14 10:21:00,
2013-07-14 04:32:00,48.0,31.0,-100.00,WNW,295,3.0,4.0,53,0.00,,,-99.99,,2013-07-14 10:32:00,
2013-07-14 04:42:00,47.0,31.0,-100.00,WNW,287,4.0,4.0,54,0.00,,,-99.99,,2013-07-14 10:42:00,
2013-07-14 04:53:00,47.0,31.0,-100.00,WNW,287,4.0,4.0,54,0.00,,,-99.99,,2013-07-14 10:53:00,
2013-07-14 05:01:00,47.0,31.0,-100.00,WNW,287,4.0,4.0,54,0.00,,,-99.99,,2013-07-14 11:01:00,
2013-07-14 05:11:00,47.0,33.0,-100.00,West,278,2.0,3.0,58,0.00,,,-99.99,,2013-07-14 11:11:00,
2013-07-14 05:21:00,47.0,33.0,-100.00,West,278,2.0,3.0,58,0.00,,,-99.99,,2013-07-14 11:21:00,
2013-07-14 05:32:00,46.0,31.0,-100.00,NW,313,2.0,3.0,54,0.00,,,-99.99,,2013-07-14 11:32:00,
2013-07-14 05:43:00,47.0,32.0,-100.00,West,281,3.0,4.0,56,0.00,,,-99.99,,2013-07-14 11:43:00,
2013-07-14 06:02:00,47.0,32.0,-100.00,West,281,3.0,4.0,56,0.00,,,-99.99,,2013-07-14 12:02:00,
2013-07-14 06:11:00,46.0,33.0,-100.00,WNW,291,1.0,2.0,60,0.00,,,-99.99,,2013-07-14 12:11:00,
2013-07-14 06:32:00,45.0,33.0,-100.00,NW,313,1.0,2.0,62,0.00,,,-99.99,,2013-07-14 12:32:00,
2013-07-14 06:43:00,45.0,33.0,-100.00,WNW,302,0.0,1.0,61,0.00,,,-99.99,,2013-07-14 12:43:00,
2013-07-14 06:53:00,45.0,33.0,-100.00,WNW,302,0.0,1.0,61,0.00,,,-99.99,,2013-07-14 12:53:00,
2013-07-14 07:01:00,45.0,33.0,-100.00,West,267,1.0,2.0,63,0.00,,,-99.99,,2013-07-14 13:01:00,
2013-07-14 07:22:00,46.0,34.0,-100.00,WNW,296,1.0,3.0,63,0.00,,,-99.99,,2013-07-14 13:22:00,
2013-07-14 07:32:00,47.0,36.0,-100.00,NNW,346,1.0,1.0,65,0.00,,,-99.99,,2013-07-14 13:32:00,
2013-07-14 07:42:00,47.0,36.0,-100.00,NW,319,0.0,1.0,66,0.00,,,-99.99,,2013-07-14 13:42:00,
2013-07-14 07:53:00,47.0,36.0,-100.00,NW,319,0.0,1.0,66,0.00,,,-99.99,,2013-07-14 13:53:00,
2013-07-14 08:01:00,49.0,37.0,-100.00,NE,35,1.0,2.0,63,0.00,,,-99.99,,2013-07-14 14:01:00,
2013-07-14 08:11:00,49.0,37.0,-100.00,NE,35,1.0,2.0,63,0.00,,,-99.99,,2013-07-14 14:11:00,
2013-07-14 08:23:00,49.0,37.0,-100.00,NE,35,1.0,2.0,63,0.00,,,-99.99,,2013-07-14 14:23:00,
2013-07-14 08:33:00,56.0,36.0,-100.00,ENE,64,1.0,3.0,46,0.00,,,-99.99,,2013-07-14 14:33:00,
2013-07-14 08:43:00,57.0,35.0,-100.00,ESE,109,3.0,4.0,43,0.00,,,-99.99,,2013-07-14 14:43:00,
2013-07-14 08:53:00,57.0,35.0,-100.00,ESE,109,3.0,4.0,43,0.00,,,-99.99,,2013-07-14 14:53:00,
2013-07-14 09:01:00,57.0,34.0,-100.00,SE,133,6.0,7.0,41,0.00,,,-99.99,,2013-07-14 15:01:00,
2013-07-14 09:32:00,58.0,35.0,-100.00,SE,136,6.0,7.0,43,0.00,,,-99.99,,2013-07-14 15:32:00,
2013-07-14 09:42:00,60.0,32.0,-100.00,SE,127,4.0,6.0,34,0.00,,,-99.99,,2013-07-14 15:42:00,
2013-07-14 09:53:00,60.0,32.0,-100.00,SE,127,4.0,6.0,34,0.00,,,-99.99,,2013-07-14 15:53:00,
2013-07-14 10:01:00,60.0,33.0,-100.00,SE,134,5.0,6.0,36,0.00,,,-99.99,,2013-07-14 16:01:00,
2013-07-14 10:30:00,60.0,35.0,-100.00,SE,130,6.0,8.0,39,0.00,,,-99.99,,2013-07-14 16:30:00,
2013-07-14 10:32:00,64.0,34.0,-100.00,SSW,195,4.0,5.0,32,0.00,,,-99.99,,2013-07-14 16:32:00,
2013-07-14 10:43:00,62.0,35.0,-100.00,SE,138,4.0,7.0,36,0.00,,,-99.99,,2013-07-14 16:43:00,
2013-07-14 10:53:00,62.0,35.0,-100.00,SE,138,4.0,7.0,36,0.00,,,-99.99,,2013-07-14 16:53:00,
2013-07-14 11:02:00,60.0,35.0,-100.00,SE,130,6.0,8.0,39,0.00,,,-99.99,,2013-07-14 17:02:00,
2013-07-14 11:11:00,60.0,35.0,-100.00,SE,130,6.0,8.0,39,0.00,,,-99.99,,2013-07-14 17:11:00,
2013-07-14 11:22:00,60.0,35.0,-100.00,SE,130,6.0,8.0,39,0.00,,,-99.99,,2013-07-14 17:22:00,
2013-07-14 11:43:00,65.0,34.0,-100.00,SE,124,8.0,11.0,31,0.00,,,-99.99,,2013-07-14 17:43:00,
2013-07-14 11:53:00,65.0,34.0,-100.00,SE,124,8.0,11.0,31,0.00,,,-99.99,,2013-07-14 17:53:00,
2013-07-14 12:01:00,66.0,34.0,-100.00,SE,141,6.0,10.0,30,0.00,,,-99.99,,2013-07-14 18:01:00,
2013-07-14 12:11:00,67.0,33.0,-100.00,SE,131,9.0,13.0,29,0.00,,,-99.99,,2013-07-14 18:11:00,
2013-07-14 12:21:00,67.0,33.0,-100.00,SE,131,9.0,13.0,29,0.00,,,-99.99,,2013-07-14 18:21:00,
2013-07-14 12:32:00,67.0,33.0,-100.00,SE,131,9.0,13.0,29,0.00,,,-99.99,,2013-07-14 18:32:00,
2013-07-14 12:42:00,67.0,33.0,-100.00,ESE,123,9.0,13.0,28,0.00,,,-99.99,,2013-07-14 18:42:00,
2013-07-14 12:52:00,67.0,33.0,-100.00,ESE,123,9.0,13.0,28,0.00,,,-99.99,,2013-07-14 18:52:00,
2013-07-14 13:01:00,69.0,33.0,-100.00,South,169,7.0,12.0,27,0.00,,,-99.99,,2013-07-14 19:01:00,
2013-07-14 13:11:00,69.0,35.0,-100.00,SE,130,8.0,12.0,28,0.00,,,-99.99,,2013-07-14 19:11:00,
2013-07-14 13:22:00,69.0,35.0,-100.00,SE,130,8.0,12.0,28,0.00,,,-99.99,,2013-07-14 19:22:00,
2013-07-14 13:32:00,69.0,33.0,-100.00,ESE,110,7.0,12.0,27,0.00,,,-99.99,,2013-07-14 19:32:00,
2013-07-14 13:43:00,70.0,33.0,-100.00,SE,126,9.0,11.0,26,0.00,,,-99.99,,2013-07-14 19:43:00,
2013-07-14 13:53:00,70.0,33.0,-100.00,SE,126,9.0,11.0,26,0.00,,,-99.99,,2013-07-14 19:53:00,
2013-07-14 14:01:00,71.0,33.0,-100.00,SE,128,7.0,13.0,25,0.00,,,-99.99,,2013-07-14 20:01:00,
2013-07-14 14:11:00,72.0,31.0,-100.00,SSE,152,8.0,12.0,22,0.00,,,-99.99,,2013-07-14 20:11:00,
2013-07-14 14:22:00,72.0,31.0,-100.00,SSE,152,8.0,12.0,22,0.00,,,-99.99,,2013-07-14 20:22:00,
2013-07-14 14:32:00,72.0,31.0,-100.00,SSE,152,8.0,12.0,22,0.00,,,-99.99,,2013-07-14 20:32:00,
2013-07-14 14:43:00,74.0,33.0,-100.00,SE,136,8.0,11.0,22,0.00,,,-99.99,,2013-07-14 20:43:00,
2013-07-14 15:01:00,74.0,33.0,-100.00,SE,136,8.0,11.0,22,0.00,,,-99.99,,2013-07-14 21:01:00,
2013-07-14 15:22:00,74.0,30.0,-100.00,SSE,151,8.0,12.0,20,0.00,,,-99.99,,2013-07-14 21:22:00,
2013-07-14 15:32:00,76.0,29.0,-100.00,SSE,165,8.0,13.0,18,0.00,,,-99.99,,2013-07-14 21:32:00,
2013-07-14 15:43:00,77.0,28.0,-100.00,WSW,243,4.0,9.0,17,0.00,,,-99.99,,2013-07-14 21:43:00,
2013-07-14 15:52:00,77.0,28.0,-100.00,WSW,243,4.0,9.0,17,0.00,,,-99.99,,2013-07-14 21:52:00,
2013-07-14 16:01:00,77.0,31.0,-100.00,SSW,210,6.0,10.0,19,0.00,,,-99.99,,2013-07-14 22:01:00,
2013-07-14 16:22:00,76.0,30.0,-100.00,SSE,160,2.0,4.0,18,0.00,,,-99.99,,2013-07-14 22:22:00,
2013-07-14 16:32:00,76.0,30.0,-100.00,SSE,160,2.0,4.0,18,0.00,,,-99.99,,2013-07-14 22:32:00,
2013-07-14 16:42:00,76.0,28.0,-100.00,SSE,168,4.0,8.0,17,0.00,,,-99.99,,2013-07-14 22:42:00,
2013-07-14 16:53:00,76.0,28.0,-100.00,SSE,168,4.0,8.0,17,0.00,,,-99.99,,2013-07-14 22:53:00,
2013-07-14 17:01:00,77.0,28.0,-100.00,West,278,2.0,5.0,17,0.00,,,-99.99,,2013-07-14 23:01:00,
2013-07-14 17:11:00,79.0,30.0,-100.00,SSW,210,6.0,11.0,16,0.00,,,-99.99,,2013-07-14 23:11:00,
2013-07-14 17:32:00,77.0,32.0,-100.00,WSW,237,4.0,9.0,19,0.00,,,-99.99,,2013-07-14 23:32:00,
2013-07-14 17:42:00,80.0,29.0,-100.00,WSW,246,2.0,5.0,15,0.00,,,-99.99,,2013-07-14 23:42:00,
2013-07-14 18:11:00,77.0,30.0,-100.00,ENE,62,6.0,7.0,18,0.00,,,0.00,,2013-07-15 00:11:00,
2013-07-14 18:22:00,77.0,30.0,-100.00,ENE,62,6.0,7.0,18,0.00,,,0.00,,2013-07-15 00:22:00,
2013-07-14 18:32:00,77.0,30.0,-100.00,ENE,62,6.0,7.0,18,0.00,,,0.00,,2013-07-15 00:32:00,
2013-07-14 18:43:00,78.0,32.0,-100.00,WNW,298,5.0,7.0,18,0.00,,,0.00,,2013-07-15 00:43:00,
2013-07-14 18:53:00,78.0,32.0,-100.00,WNW,298,5.0,7.0,18,0.00,,,0.00,,2013-07-15 00:53:00,
2013-07-14 19:01:00,79.0,30.0,-100.00,WSW,237,4.0,6.0,17,0.00,,,0.00,,2013-07-15 01:01:00,
2013-07-14 19:11:00,77.0,31.0,-100.00,SSW,198,3.0,5.0,18,0.00,,,0.00,,2013-07-15 01:11:00,
2013-07-14 19:22:00,77.0,31.0,-100.00,SSW,198,3.0,5.0,18,0.00,,,0.00,,2013-07-15 01:22:00,
2013-07-14 19:32:00,77.0,31.0,-100.00,SSW,198,3.0,5.0,18,0.00,,,0.00,,2013-07-15 01:32:00,
2013-07-14 19:43:00,73.0,35.0,-100.00,NW,316,8.0,9.0,24,0.00,,,0.00,,2013-07-15 01:43:00,
2013-07-14 19:53:00,73.0,35.0,-100.00,NW,316,8.0,9.0,24,0.00,,,0.00,,2013-07-15 01:53:00,
2013-07-14 20:02:00,72.0,36.0,-100.00,WNW,298,7.0,9.0,26,0.00,,,0.00,,2013-07-15 02:02:00,
2013-07-14 20:11:00,72.0,36.0,-100.00,NW,309,4.0,7.0,27,0.00,,,0.00,,2013-07-15 02:11:00,
2013-07-14 20:22:00,72.0,36.0,-100.00,NW,309,4.0,7.0,27,0.00,,,0.00,,2013-07-15 02:22:00,
2013-07-14 20:32:00,70.0,35.0,-100.00,NW,309,7.0,10.0,28,0.00,,,0.00,,2013-07-15 02:32:00,
2013-07-14 20:42:00,69.0,36.0,-100.00,WNW,302,5.0,8.0,31,0.00,,,0.00,,2013-07-15 02:42:00,
2013-07-14 20:53:00,69.0,36.0,-100.00,WNW,302,5.0,8.0,31,0.00,,,0.00,,2013-07-15 02:53:00,
2013-07-14 21:01:00,67.0,37.0,-100.00,WNW,291,4.0,6.0,34,0.00,,,0.00,,2013-07-15 03:01:00,
2013-07-14 21:11:00,66.0,37.0,-100.00,NW,308,4.0,5.0,34,0.00,,,0.00,,2013-07-15 03:11:00,
2013-07-14 21:21:00,66.0,37.0,-100.00,NW,308,4.0,5.0,34,0.00,,,0.00,,2013-07-15 03:21:00,
2013-07-14 21:32:00,65.0,37.0,-100.00,NW,326,3.0,5.0,36,0.00,,,0.00,,2013-07-15 03:32:00,
2013-07-14 21:53:00,64.0,38.0,-100.00,NNW,337,2.0,4.0,38,0.00,,,0.00,,2013-07-15 03:53:00,
2013-07-14 22:01:00,63.0,39.0,-100.00,NNW,339,2.0,3.0,41,0.00,,,0.00,,2013-07-15 04:01:00,
2013-07-14 22:11:00,61.0,38.0,-100.00,NW,318,2.0,3.0,43,0.00,,,0.00,,2013-07-15 04:11:00,
2013-07-14 22:22:00,61.0,38.0,-100.00,NW,318,2.0,3.0,43,0.00,,,0.00,,2013-07-15 04:22:00,
2013-07-14 22:32:00,61.0,38.0,-100.00,NW,318,2.0,3.0,43,0.00,,,0.00,,2013-07-15 04:32:00,
2013-07-14 22:42:00,61.0,38.0,-100.00,NW,318,2.0,3.0,43,0.00,,,0.00,,2013-07-15 04:42:00,
2013-07-14 23:02:00,60.0,36.0,-100.00,NW,316,5.0,7.0,40,0.00,,,0.00,,2013-07-15 05:02:00,
2013-07-14 23:11:00,59.0,38.0,-100.00,NNW,332,4.0,5.0,45,0.00,,,0.00,,2013-07-15 05:11:00,
2013-07-14 23:21:00,59.0,38.0,-100.00,NNW,332,4.0,5.0,45,0.00,,,0.00,,2013-07-15 05:21:00,
2013-07-14 23:32:00,59.0,37.0,-100.00,NW,326,3.0,4.0,45,0.00,,,0.00,,2013-07-15 05:32:00,
2013-07-14 23:43:00,59.0,37.0,-100.00,NW,319,4.0,5.0,44,0.00,,,0.00,,2013-07-15 05:43:00,
2013-07-14 23:53:00,59.0,37.0,-100.00,NW,319,4.0,5.0,44,0.00,,,0.00,,2013-07-15 05:53:00,